Laurel, NY (11948)

10:07 AM EST on December 07, 2016 (GMT -0500)
APRSWXNET | | Change Station

Elev 16 ft 40.99 °N, 72.51 °W | Updated 32 minutes ago

Overcast
Overcast
42 °F
Feels Like 42 °F
N
2
Wind Variable Wind from ENE
Gusts 2.0 mph

Today
High -- | Low -- °F
--% Chance of Precip.
Yesterday
High -- | Low -- °F
Precip. -- in
Pressure 30.01 in
Visibility 10.0 miles
Clouds Mostly Cloudy 800 ft
Mostly Cloudy 1400 ft
Overcast 3400 ft
Windchill 42 °F
Dew Point 41 °F
Humidity 96%
Rainfall in
Snow Depth Not available.
7:01 AM 4:21 PM
First Quarter, 53% visible
METAR KFOK 071453Z 03005KT 10SM BKN008 BKN014 OVC034 06/04 A3001 RMK AO2 SLP161 T00560039 53019
Pressure 30.01 in
Visibility 10.0 miles
Clouds Mostly Cloudy 800 ft
Mostly Cloudy 1400 ft
Overcast 3400 ft
Windchill 42 °F
Dew Point 41 °F
Humidity 96%
Rainfall in
Snow Depth Not available.
7:01 AM 4:21 PM
First Quarter, 53% visible
METAR KFOK 071453Z 03005KT 10SM BKN008 BKN014 OVC034 06/04 A3001 RMK AO2 SLP161 T00560039 53019

10-Day Weather Forecast

Almanac

Astronomy

Dec. 07, 2016 Rise Set
Actual Time
Civil Twilight
Nautical Twilight
Astronomical Twilight
Moon
Length of Visible Light
Length of Day
Tomorrow will be .
, % of the Moon is Illuminated

Today's Extremes

State Highs State Lows

Community

WunderPhotos

Upload Photos

1,956,118 photos uploaded!

WunderBlog® & News

Nearby

Air Quality

  Air Quality AQ Index Pollutant
Not available.

Snow Depth

Station Depth Elevation

Earthquake Activity

City Distance Mag. Time & Date
Minimum magnitude displayed is 2.5.

Coastal Water Temperatures

Place Temperature

Stations

Nearby Weather Stations

Station Location Temp. Windchill Dew Point Humidity Wind Precip. Elev Updated Type
                   

Watches & Warnings

There are currently no watches in effect.